This is the latest recevied weather packets stored in our database for station/object OM6ABF-11. If no packets are shown the sender has not sent any weather packets the latest 1 day(s).
| Time | Temp. | Humidity | Pressure | Rain* | Wind** | Luminosity | Snow |
|---|---|---|---|---|---|---|---|
| 1778085352 | 19.44° C | 45% | 1010 hPa | - | - | - | - |
| 1778084453 | 19.44° C | 45% | 1010.1 hPa | - | - | - | - |
| 1778083553 | 19.44° C | 46% | 1010.1 hPa | - | - | - | - |
| 1778082655 | 20° C | 45% | 1010.4 hPa | - | - | - | - |
| 1778079956 | 21.11° C | 42% | 1010.6 hPa | - | - | - | - |
| 1778079056 | 21.67° C | 40% | 1010.7 hPa | - | - | - | - |
| 1778077258 | 21.67° C | 40% | 1010.9 hPa | - | - | - | - |
| 1778076361 | 20° C | 45% | 1011.1 hPa | - | - | - | - |
| 1778073665 | 21.11° C | 41% | 1011.1 hPa | - | - | - | - |
| 1778072766 | 21.67° C | 40% | 1010.8 hPa | - | - | - | - |
| 1778071868 | 21.11° C | 39% | 1010.9 hPa | - | - | - | - |
| 1778070969 | 23.33° C | 36% | 1010.9 hPa | - | - | - | - |
| 1778070072 | 23.33° C | 37% | 1011.1 hPa | - | - | - | - |
| 1778064676 | 21.67° C | 39% | 1011.2 hPa | - | - | - | - |
| 1778063777 | 22.22° C | 39% | 1011.3 hPa | - | - | - | - |
| 1778062877 | 22.22° C | 39% | 1011.4 hPa | - | - | - | - |
| 1778059278 | 20.56° C | 43% | 1011.6 hPa | - | - | - | - |
| 1778058379 | 19.44° C | 46% | 1011.5 hPa | - | - | - | - |
| 1778056582 | 19.44° C | 47% | 1011.8 hPa | - | - | - | - |
| 1778054786 | 18.33° C | 50% | 1011.7 hPa | - | - | - | - |
| 1778053885 | 18.33° C | 51% | 1011.8 hPa | - | - | - | - |
| 1778052085 | 17.22° C | 53% | 1011.7 hPa | - | - | - | - |
| 1778051188 | 16.11° C | 55% | 1011.7 hPa | - | - | - | - |
| 1778048490 | 16.11° C | 55% | 1011.8 hPa | - | - | - | - |
| 1778043993 | 13.33° C | 63% | 1011.7 hPa | - | - | - | - |
* Rain since midnight (hover to see other rain measurements)
** Current wind speed in m/s (hover to see current wind gust speed)